Time;durP1;ratioP1;P1;durP2;ratioP2;P2;SDS_P1;SDS_P2;PMS_P1;PMS_P2;Temp;Humidity;BMP_temperature;BMP_pressure;BME280_temperature;BME280_humidity;BME280_pressure;Samples;Min_cycle;Max_cycle;Signal;HPM_P1;HPM_P2
2024/03/31 00:02:14;;;;;;;59.17;11.90;;;;;;;;;;5087230;28;20039;-58
2024/03/31 00:04:40;;;;;;;77.85;14.43;;;;;;;;;;5090387;28;20028;-59
2024/03/31 00:07:06;;;;;;;65.85;14.13;;;;;;;;;;5083438;28;20086;-57
2024/03/31 00:09:32;;;;;;;56.40;12.77;;;;;;;;;;5086292;28;20012;-59
2024/03/31 00:11:59;;;;;;;52.00;13.25;;;;;;;;;;5089484;28;20081;-59
2024/03/31 00:14:25;;;;;;;59.42;12.82;;;;;;;;;;5082755;28;20029;-59
2024/03/31 00:16:51;;;;;;;63.17;13.13;;;;;;;;;;5091205;28;20491;-59
2024/03/31 00:19:17;;;;;;;65.80;12.35;;;;;;;;;;5095423;28;20059;-58
2024/03/31 00:21:43;;;;;;;61.95;11.38;;;;;;;;;;5092069;28;20044;-59
2024/03/31 00:24:09;;;;;;;70.70;13.35;;;;;;;;;;5084858;28;20020;-59
2024/03/31 00:26:35;;;;;;;59.70;11.63;;;;;;;;;;5095976;28;20035;-58
2024/03/31 00:29:01;;;;;;;59.53;13.10;;;;;;;;;;5095759;28;20020;-59
2024/03/31 00:31:27;;;;;;;82.50;15.52;;;;;;;;;;5091114;28;20031;-59
2024/03/31 00:33:53;;;;;;;58.22;12.73;;;;;;;;;;5085183;28;20024;-58
2024/03/31 00:36:19;;;;;;;48.80;13.02;;;;;;;;;;5095372;28;20032;-59
2024/03/31 00:38:45;;;;;;;73.53;12.75;;;;;;;;;;5082554;28;20089;-58
2024/03/31 00:41:11;;;;;;;65.25;14.05;;;;;;;;;;5090915;28;20020;-59
2024/03/31 00:43:37;;;;;;;60.53;14.82;;;;;;;;;;5087734;28;20107;-59
2024/03/31 00:46:03;;;;;;;66.70;13.85;;;;;;;;;;5093214;28;20502;-58
2024/03/31 00:48:29;;;;;;;59.97;13.50;;;;;;;;;;5095176;28;20169;-59
2024/03/31 00:50:55;;;;;;;65.95;12.93;;;;;;;;;;5094525;28;20095;-60
2024/03/31 00:53:21;;;;;;;69.80;13.43;;;;;;;;;;5080588;28;20029;-60
2024/03/31 00:55:47;;;;;;;73.90;13.32;;;;;;;;;;5093386;28;20035;-61
2024/03/31 00:58:13;;;;;;;69.78;12.88;;;;;;;;;;5095264;28;20020;-60
2024/03/31 01:00:39;;;;;;;60.58;13.25;;;;;;;;;;5095198;28;20030;-60
2024/03/31 01:03:05;;;;;;;62.92;12.82;;;;;;;;;;5088603;28;20468;-60
2024/03/31 01:05:31;;;;;;;50.80;11.77;;;;;;;;;;5094144;28;20028;-60
2024/03/31 01:07:58;;;;;;;69.00;13.57;;;;;;;;;;5086536;28;20496;-58
2024/03/31 01:10:23;;;;;;;54.65;12.48;;;;;;;;;;5088679;28;20028;-59
2024/03/31 01:12:50;;;;;;;57.53;12.55;;;;;;;;;;5083173;28;20534;-57
2024/03/31 01:15:16;;;;;;;62.45;12.98;;;;;;;;;;5094990;28;20093;-60
2024/03/31 01:17:42;;;;;;;51.20;13.18;;;;;;;;;;5094716;28;20035;-59
2024/03/31 01:20:08;;;;;;;65.53;13.73;;;;;;;;;;5093309;28;20093;-58
2024/03/31 01:22:35;;;;;;;65.13;12.70;;;;;;;;;;5092058;28;20063;-59
2024/03/31 01:25:01;;;;;;;52.40;14.05;;;;;;;;;;5082156;28;20514;-60
2024/03/31 01:27:27;;;;;;;67.47;15.02;;;;;;;;;;5083372;28;20683;-60
2024/03/31 01:29:53;;;;;;;65.80;12.73;;;;;;;;;;5094481;28;20073;-60
2024/03/31 01:32:19;;;;;;;59.75;13.85;;;;;;;;;;5092839;28;20027;-60
2024/03/31 01:34:45;;;;;;;69.93;13.45;;;;;;;;;;5094269;28;20035;-60
2024/03/31 01:37:11;;;;;;;52.03;11.98;;;;;;;;;;5090439;28;20476;-60
2024/03/31 01:39:37;;;;;;;64.45;13.88;;;;;;;;;;5085088;28;20506;-59
2024/03/31 01:42:03;;;;;;;62.03;13.15;;;;;;;;;;5090870;28;20020;-59
2024/03/31 01:44:29;;;;;;;69.13;13.50;;;;;;;;;;5094088;28;20028;-60
2024/03/31 01:46:55;;;;;;;64.15;13.90;;;;;;;;;;5094333;28;20032;-59
2024/03/31 01:49:21;;;;;;;60.45;15.07;;;;;;;;;;5094382;28;20032;-60
2024/03/31 01:51:47;;;;;;;64.60;13.23;;;;;;;;;;5103067;28;20119;-60
2024/03/31 01:54:13;;;;;;;69.40;14.02;;;;;;;;;;5093483;28;20024;-60
2024/03/31 01:56:39;;;;;;;72.68;13.13;;;;;;;;;;5088335;28;20491;-59
2024/03/31 01:59:05;;;;;;;57.30;13.23;;;;;;;;;;5081367;28;20498;-60
2024/03/31 02:01:31;;;;;;;71.47;14.10;;;;;;;;;;5093885;28;20028;-59
2024/03/31 02:03:57;;;;;;;58.55;12.80;;;;;;;;;;5085163;28;20024;-60
2024/03/31 02:06:23;;;;;;;63.92;13.23;;;;;;;;;;5094029;28;20494;-60
2024/03/31 02:08:49;;;;;;;67.55;13.75;;;;;;;;;;5090445;28;20404;-56
2024/03/31 02:11:15;;;;;;;57.85;11.40;;;;;;;;;;5086741;28;20030;-56
2024/03/31 02:13:41;;;;;;;68.05;13.82;;;;;;;;;;5088797;28;20032;-56
2024/03/31 02:16:07;;;;;;;76.82;13.57;;;;;;;;;;5092721;28;20036;-56
2024/03/31 02:18:33;;;;;;;55.72;12.60;;;;;;;;;;5093703;28;20099;-56
2024/03/31 02:20:59;;;;;;;59.25;12.77;;;;;;;;;;5093016;28;20031;-57
2024/03/31 02:23:25;;;;;;;66.32;13.18;;;;;;;;;;5090695;28;20124;-56
2024/03/31 02:25:51;;;;;;;50.42;12.93;;;;;;;;;;5093645;28;20036;-55
2024/03/31 02:28:23;;;;;;;62.42;13.13;;;;;;;;;;5087759;28;20024;-55
2024/03/31 02:30:49;;;;;;;68.43;12.55;;;;;;;;;;5091688;28;20454;-58
2024/03/31 02:33:15;;;;;;;61.85;12.35;;;;;;;;;;5087365;28;20028;-56
2024/03/31 02:35:42;;;;;;;59.95;13.07;;;;;;;;;;5088374;28;20020;-55
2024/03/31 02:38:08;;;;;;;60.78;12.80;;;;;;;;;;5091641;28;20034;-55
2024/03/31 02:40:33;;;;;;;70.22;14.38;;;;;;;;;;5092673;28;20028;-56
2024/03/31 02:42:59;;;;;;;67.82;11.68;;;;;;;;;;5087747;28;20024;-56
2024/03/31 02:45:25;;;;;;;59.83;13.43;;;;;;;;;;5090227;28;20085;-56
2024/03/31 02:47:52;;;;;;;67.55;13.18;;;;;;;;;;5088718;28;20024;-56
2024/03/31 02:50:18;;;;;;;52.38;12.80;;;;;;;;;;5093160;28;20031;-55
2024/03/31 02:52:44;;;;;;;52.10;12.70;;;;;;;;;;5090608;28;20028;-55
2024/03/31 02:55:10;;;;;;;69.45;14.00;;;;;;;;;;5084586;28;20073;-55
2024/03/31 02:57:36;;;;;;;57.20;13.00;;;;;;;;;;5093066;28;20032;-55
2024/03/31 03:00:01;;;;;;;61.28;13.93;;;;;;;;;;5092899;28;20031;-57
2024/03/31 03:02:27;;;;;;;70.90;12.88;;;;;;;;;;5092472;28;20027;-56
2024/03/31 03:04:53;;;;;;;65.00;13.43;;;;;;;;;;5092975;28;20047;-56
2024/03/31 03:07:19;;;;;;;73.18;12.50;;;;;;;;;;5083977;28;20028;-56
2024/03/31 03:09:45;;;;;;;61.90;13.18;;;;;;;;;;5076755;28;20024;-54
2024/03/31 03:12:11;;;;;;;74.45;14.75;;;;;;;;;;5086864;28;20035;-56
2024/03/31 03:14:37;;;;;;;51.03;11.55;;;;;;;;;;5092742;28;20036;-56
2024/03/31 03:17:07;;;;;;;73.30;13.00;;;;;;;;;;5087074;28;20036;-56
2024/03/31 03:19:33;;;;;;;79.82;13.60;;;;;;;;;;5092840;28;20028;-56
2024/03/31 03:21:59;;;;;;;61.72;14.55;;;;;;;;;;5089755;28;20175;-56
2024/03/31 03:24:25;;;;;;;57.10;12.80;;;;;;;;;;5087276;28;20388;-56
2024/03/31 03:26:51;;;;;;;66.82;14.18;;;;;;;;;;5092446;28;20024;-56
2024/03/31 03:29:17;;;;;;;69.70;13.48;;;;;;;;;;5092259;28;20096;-55
2024/03/31 03:31:43;;;;;;;68.50;15.00;;;;;;;;;;5090905;28;20035;-56
2024/03/31 03:34:09;;;;;;;58.13;14.45;;;;;;;;;;5091119;28;20028;-56
2024/03/31 03:36:35;;;;;;;64.47;14.20;;;;;;;;;;5091885;28;20028;-55
2024/03/31 03:39:00;;;;;;;76.28;16.77;;;;;;;;;;5076137;28;20032;-55
2024/03/31 03:41:26;;;;;;;85.68;15.70;;;;;;;;;;5092139;28;20023;-54
2024/03/31 03:43:53;;;;;;;68.45;13.85;;;;;;;;;;5084513;28;20032;-56
2024/03/31 03:46:18;;;;;;;63.45;13.43;;;;;;;;;;5092132;28;20047;-55
2024/03/31 03:48:44;;;;;;;67.28;15.05;;;;;;;;;;5091336;28;20487;-55
2024/03/31 03:51:10;;;;;;;50.05;12.77;;;;;;;;;;5093420;28;20480;-55
2024/03/31 03:53:36;;;;;;;58.33;14.90;;;;;;;;;;5081108;28;20545;-56
2024/03/31 03:56:02;;;;;;;60.67;13.25;;;;;;;;;;5091902;28;20434;-56
2024/03/31 03:58:28;;;;;;;67.00;14.63;;;;;;;;;;5081359;28;20028;-55
2024/03/31 04:00:56;;;;;;;74.80;14.57;;;;;;;;;;5092037;28;20379;-54
2024/03/31 04:03:22;;;;;;;75.22;14.45;;;;;;;;;;5076855;28;20036;-56
2024/03/31 04:05:55;;;;;;;51.63;13.23;;;;;;;;;;5084408;28;20388;-56
2024/03/31 04:08:21;;;;;;;61.37;15.27;;;;;;;;;;5076782;28;20033;-55
2024/03/31 04:10:47;;;;;;;70.20;15.38;;;;;;;;;;5085690;28;20031;-56
2024/03/31 04:13:13;;;;;;;52.92;13.70;;;;;;;;;;5091613;28;20395;-56
2024/03/31 04:15:39;;;;;;;64.68;15.65;;;;;;;;;;5092031;28;20032;-56
2024/03/31 04:18:06;;;;;;;63.28;14.55;;;;;;;;;;5091810;28;20069;-56
2024/03/31 04:20:32;;;;;;;68.55;15.48;;;;;;;;;;5080825;28;20032;-55
2024/03/31 04:22:58;;;;;;;67.93;15.27;;;;;;;;;;5084033;28;20370;-55
2024/03/31 04:25:24;;;;;;;54.65;13.45;;;;;;;;;;5081515;28;20031;-55
2024/03/31 04:27:52;;;;;;;66.90;13.43;;;;;;;;;;5091911;28;20062;-60
2024/03/31 04:30:18;;;;;;;65.43;13.85;;;;;;;;;;5083022;28;20021;-60
2024/03/31 04:32:45;;;;;;;78.75;15.43;;;;;;;;;;5091101;28;20361;-60
2024/03/31 04:35:11;;;;;;;63.33;15.50;;;;;;;;;;5077875;28;20028;-61
2024/03/31 04:37:36;;;;;;;65.10;13.00;;;;;;;;;;5089367;28;20036;-60
2024/03/31 04:40:02;;;;;;;60.10;16.63;;;;;;;;;;5088941;28;20031;-59
2024/03/31 04:42:28;;;;;;;62.80;14.98;;;;;;;;;;5091026;28;20111;-60
2024/03/31 04:44:54;;;;;;;67.22;15.70;;;;;;;;;;5091712;28;20464;-59
2024/03/31 04:47:21;;;;;;;67.80;15.43;;;;;;;;;;5072787;28;20545;-60
2024/03/31 04:49:47;;;;;;;60.20;13.88;;;;;;;;;;5079180;28;20499;-59
2024/03/31 04:52:13;;;;;;;80.55;14.95;;;;;;;;;;5099548;28;20032;-59
2024/03/31 04:54:39;;;;;;;78.28;14.85;;;;;;;;;;5073612;28;20036;-60
2024/03/31 04:57:05;;;;;;;64.95;15.00;;;;;;;;;;5070775;28;20500;-60
2024/03/31 04:59:31;;;;;;;74.45;15.20;;;;;;;;;;5082212;28;20040;-60
2024/03/31 05:01:57;;;;;;;65.07;13.13;;;;;;;;;;5081757;28;20035;-59
2024/03/31 05:04:23;;;;;;;69.93;14.38;;;;;;;;;;5083384;28;20032;-60
2024/03/31 05:06:49;;;;;;;57.00;14.40;;;;;;;;;;5089426;28;20131;-59
2024/03/31 05:09:15;;;;;;;73.07;16.38;;;;;;;;;;5088744;28;20145;-60
2024/03/31 05:11:41;;;;;;;75.95;15.93;;;;;;;;;;5094019;28;20479;-60
2024/03/31 05:14:07;;;;;;;47.90;13.63;;;;;;;;;;5090431;28;20488;-60
2024/03/31 05:16:33;;;;;;;53.90;14.93;;;;;;;;;;5091712;28;20036;-60
2024/03/31 05:18:59;;;;;;;67.95;16.25;;;;;;;;;;5094071;28;20040;-60
2024/03/31 05:21:25;;;;;;;65.47;17.77;;;;;;;;;;5091833;28;20043;-60
2024/03/31 05:23:51;;;;;;;70.63;16.80;;;;;;;;;;5083253;28;20403;-60
2024/03/31 05:26:17;;;;;;;74.30;15.35;;;;;;;;;;5093845;28;20028;-59
2024/03/31 05:28:43;;;;;;;74.55;14.63;;;;;;;;;;5093786;28;20027;-60
2024/03/31 05:31:09;;;;;;;59.35;14.80;;;;;;;;;;5085379;28;20032;-60
2024/03/31 05:33:35;;;;;;;59.15;16.55;;;;;;;;;;5089946;28;20020;-60
2024/03/31 05:36:01;;;;;;;51.88;13.23;;;;;;;;;;5089932;28;20393;-59
2024/03/31 05:38:27;;;;;;;67.22;17.30;;;;;;;;;;5089326;28;20028;-59
2024/03/31 05:40:53;;;;;;;61.90;14.93;;;;;;;;;;5091041;28;20088;-59
2024/03/31 05:43:19;;;;;;;74.20;16.70;;;;;;;;;;5086359;28;20036;-59
2024/03/31 05:45:45;;;;;;;64.35;16.35;;;;;;;;;;5093034;28;20028;-59
2024/03/31 05:48:12;;;;;;;62.63;14.75;;;;;;;;;;5091972;28;20035;-59
2024/03/31 05:50:38;;;;;;;56.92;15.25;;;;;;;;;;5091785;28;20024;-60
2024/03/31 05:53:04;;;;;;;70.20;16.60;;;;;;;;;;5089572;28;20040;-59
2024/03/31 05:55:30;;;;;;;69.82;15.18;;;;;;;;;;5093206;28;20036;-59
2024/03/31 05:57:56;;;;;;;70.05;16.20;;;;;;;;;;5085662;28;20387;-58
2024/03/31 06:00:23;;;;;;;68.53;13.80;;;;;;;;;;5089076;28;20032;-58
2024/03/31 06:02:49;;;;;;;43.90;12.75;;;;;;;;;;5090750;28;20034;-59
2024/03/31 06:05:15;;;;;;;52.83;14.13;;;;;;;;;;5090984;28;20571;-59
2024/03/31 06:07:41;;;;;;;57.60;14.43;;;;;;;;;;5092021;28;20451;-56
2024/03/31 06:10:07;;;;;;;57.42;14.00;;;;;;;;;;5087881;28;20140;-58
2024/03/31 06:12:33;;;;;;;63.58;14.70;;;;;;;;;;5089015;28;20115;-59
2024/03/31 06:14:59;;;;;;;71.35;14.55;;;;;;;;;;5089611;28;20020;-58
2024/03/31 06:17:25;;;;;;;64.63;15.45;;;;;;;;;;5088059;28;20024;-59
2024/03/31 06:19:51;;;;;;;74.05;13.70;;;;;;;;;;5089925;28;20031;-59
2024/03/31 06:22:17;;;;;;;55.67;14.60;;;;;;;;;;5091841;28;20126;-59
2024/03/31 06:24:46;;;;;;;59.10;14.25;;;;;;;;;;5088621;28;20488;-58
2024/03/31 06:27:12;;;;;;;60.70;15.80;;;;;;;;;;5091785;28;20107;-58
2024/03/31 06:29:39;;;;;;;55.65;12.43;;;;;;;;;;5089293;28;20024;-58
2024/03/31 06:32:05;;;;;;;49.38;12.82;;;;;;;;;;5091875;28;20036;-56
2024/03/31 06:34:31;;;;;;;59.40;14.05;;;;;;;;;;5088677;28;20032;-56
2024/03/31 06:36:57;;;;;;;68.28;13.93;;;;;;;;;;5091395;28;20032;-57
2024/03/31 06:39:23;;;;;;;57.42;13.82;;;;;;;;;;5081684;28;20445;-58
2024/03/31 06:41:49;;;;;;;62.30;14.23;;;;;;;;;;5089584;28;20107;-59
2024/03/31 06:44:14;;;;;;;69.93;14.90;;;;;;;;;;5091556;28;20425;-59
2024/03/31 06:46:40;;;;;;;68.05;14.68;;;;;;;;;;5089174;28;20430;-57
2024/03/31 06:49:06;;;;;;;55.35;14.07;;;;;;;;;;5085595;28;20028;-56
2024/03/31 06:51:32;;;;;;;56.10;14.82;;;;;;;;;;5089062;28;20084;-56
2024/03/31 06:53:58;;;;;;;57.60;14.80;;;;;;;;;;5078623;28;20107;-56
2024/03/31 06:56:24;;;;;;;65.25;12.90;;;;;;;;;;5081920;28;20032;-56
2024/03/31 06:58:50;;;;;;;58.17;14.73;;;;;;;;;;5085434;28;20035;-56
2024/03/31 07:01:16;;;;;;;48.22;11.18;;;;;;;;;;5081778;28;20062;-56
2024/03/31 07:03:42;;;;;;;68.70;13.85;;;;;;;;;;5090491;28;20546;-56
2024/03/31 07:06:08;;;;;;;53.78;13.10;;;;;;;;;;5081810;28;20392;-57
2024/03/31 07:08:34;;;;;;;65.53;13.43;;;;;;;;;;5090607;28;20633;-57
2024/03/31 07:11:00;;;;;;;60.58;14.55;;;;;;;;;;5086503;28;20113;-55
2024/03/31 07:13:26;;;;;;;61.92;14.40;;;;;;;;;;5083391;28;20095;-56
2024/03/31 07:15:52;;;;;;;67.68;14.68;;;;;;;;;;5088775;28;20028;-56
2024/03/31 07:18:18;;;;;;;61.45;13.77;;;;;;;;;;5086226;28;20149;-56
2024/03/31 07:20:44;;;;;;;59.00;13.98;;;;;;;;;;5089642;28;20483;-55
2024/03/31 07:23:10;;;;;;;63.78;13.32;;;;;;;;;;5080469;28;20037;-56
2024/03/31 07:25:36;;;;;;;64.97;13.70;;;;;;;;;;5083665;28;20036;-56
2024/03/31 07:28:02;;;;;;;76.68;15.27;;;;;;;;;;5088660;28;20024;-58
2024/03/31 07:30:28;;;;;;;66.72;15.93;;;;;;;;;;5082986;28;20505;-57
2024/03/31 07:32:54;;;;;;;72.93;13.98;;;;;;;;;;5088548;28;20122;-57
2024/03/31 07:35:20;;;;;;;54.92;13.35;;;;;;;;;;5086136;28;20028;-58
2024/03/31 07:37:46;;;;;;;76.65;12.85;;;;;;;;;;5089052;28;20541;-56
2024/03/31 07:40:13;;;;;;;63.45;13.52;;;;;;;;;;5082675;28;20028;-57
2024/03/31 07:42:39;;;;;;;58.25;14.15;;;;;;;;;;5084112;28;20039;-56
2024/03/31 07:45:05;;;;;;;80.97;14.82;;;;;;;;;;5088237;28;20040;-57
2024/03/31 07:47:31;;;;;;;57.70;12.43;;;;;;;;;;5085275;28;20020;-56
2024/03/31 07:49:57;;;;;;;71.82;14.00;;;;;;;;;;5088016;28;20395;-56
2024/03/31 07:52:23;;;;;;;88.18;14.82;;;;;;;;;;5089638;28;20035;-56
2024/03/31 07:54:49;;;;;;;51.83;13.68;;;;;;;;;;5087993;28;20111;-56
2024/03/31 07:57:18;;;;;;;59.50;14.38;;;;;;;;;;5086331;28;20063;-56
2024/03/31 07:59:45;;;;;;;62.55;13.52;;;;;;;;;;5090162;28;20028;-56
2024/03/31 08:02:11;;;;;;;65.07;13.50;;;;;;;;;;5079868;28;20052;-56
2024/03/31 08:04:37;;;;;;;67.30;13.85;;;;;;;;;;5085695;28;20035;-57
2024/03/31 08:07:03;;;;;;;74.25;15.05;;;;;;;;;;5083380;28;20024;-57
2024/03/31 08:09:29;;;;;;;64.90;13.30;;;;;;;;;;5082167;28;20036;-56
2024/03/31 08:11:55;;;;;;;57.40;13.73;;;;;;;;;;5085382;28;20712;-56
2024/03/31 08:14:21;;;;;;;61.05;13.55;;;;;;;;;;5090642;28;20027;-56
2024/03/31 08:16:47;;;;;;;52.85;13.25;;;;;;;;;;5089535;28;20106;-56
2024/03/31 08:19:13;;;;;;;64.28;13.98;;;;;;;;;;5085041;28;20036;-56
2024/03/31 08:21:39;;;;;;;67.88;13.90;;;;;;;;;;5080846;28;20045;-57
2024/03/31 08:24:05;;;;;;;70.32;15.23;;;;;;;;;;5087624;28;20148;-56
2024/03/31 08:26:32;;;;;;;64.90;13.10;;;;;;;;;;5087382;28;20169;-57
2024/03/31 08:28:58;;;;;;;81.35;15.30;;;;;;;;;;5088313;28;20464;-57
2024/03/31 08:31:24;;;;;;;48.67;13.32;;;;;;;;;;5082432;28;20025;-57
2024/03/31 08:33:50;;;;;;;60.13;15.02;;;;;;;;;;5084887;28;20031;-56
2024/03/31 08:36:15;;;;;;;59.38;15.25;;;;;;;;;;5082738;28;20025;-56
2024/03/31 08:38:41;;;;;;;68.22;13.10;;;;;;;;;;5085823;28;20473;-56
2024/03/31 08:41:11;;;;;;;67.95;12.75;;;;;;;;;;5078524;28;20107;-57
2024/03/31 08:43:38;;;;;;;79.10;15.48;;;;;;;;;;5086474;28;20032;-57
2024/03/31 08:46:06;;;;;;;63.22;13.20;;;;;;;;;;5081288;28;20500;-57
2024/03/31 08:48:32;;;;;;;63.22;14.02;;;;;;;;;;5092134;28;20024;-57
2024/03/31 08:50:58;;;;;;;68.68;14.65;;;;;;;;;;5094689;28;20028;-58
2024/03/31 08:53:25;;;;;;;64.45;14.13;;;;;;;;;;5084443;28;20454;-57
2024/03/31 08:55:51;;;;;;;68.47;14.20;;;;;;;;;;5086653;28;20024;-57
2024/03/31 08:58:18;;;;;;;85.60;15.23;;;;;;;;;;5093872;28;20555;-57
2024/03/31 09:00:44;;;;;;;89.93;14.73;;;;;;;;;;5087283;28;20408;-56
2024/03/31 09:03:11;;;;;;;84.43;15.70;;;;;;;;;;5087322;28;20525;-57
2024/03/31 09:05:37;;;;;;;66.72;13.68;;;;;;;;;;5086410;28;20034;-57
2024/03/31 09:08:04;;;;;;;78.00;15.50;;;;;;;;;;5091301;28;20028;-57
2024/03/31 09:10:30;;;;;;;76.10;15.68;;;;;;;;;;5092124;28;20103;-56
2024/03/31 09:12:56;;;;;;;79.28;14.75;;;;;;;;;;5090654;28;20103;-57
2024/03/31 09:15:21;;;;;;;71.20;13.40;;;;;;;;;;5094429;28;20391;-57
2024/03/31 09:17:48;;;;;;;70.03;14.82;;;;;;;;;;5092801;28;20119;-57
2024/03/31 09:20:13;;;;;;;72.55;14.80;;;;;;;;;;5093745;28;20527;-58
2024/03/31 09:22:40;;;;;;;60.20;13.23;;;;;;;;;;5088800;28;20085;-57
2024/03/31 09:25:08;;;;;;;76.15;14.82;;;;;;;;;;5092165;28;20119;-57
2024/03/31 09:27:35;;;;;;;71.22;13.27;;;;;;;;;;5090633;28;20024;-56
2024/03/31 09:30:01;;;;;;;59.70;11.23;;;;;;;;;;5089365;28;20103;-57
2024/03/31 09:32:27;;;;;;;58.97;11.63;;;;;;;;;;5087554;28;20043;-57
2024/03/31 09:34:54;;;;;;;57.85;12.15;;;;;;;;;;5087342;28;20094;-57
2024/03/31 09:37:21;;;;;;;57.35;11.98;;;;;;;;;;5092870;28;20104;-57
2024/03/31 09:39:47;;;;;;;58.03;12.18;;;;;;;;;;5091970;28;20032;-56
2024/03/31 09:42:13;;;;;;;53.90;11.90;;;;;;;;;;5084868;28;20494;-56
2024/03/31 09:44:45;;;;;;;66.97;12.55;;;;;;;;;;5078015;28;20460;-57
2024/03/31 09:47:14;;;;;;;46.90;11.30;;;;;;;;;;5107978;28;20028;-58
2024/03/31 09:49:43;;;;;;;43.28;11.23;;;;;;;;;;5087324;28;20020;-57
2024/03/31 09:52:10;;;;;;;40.55;10.70;;;;;;;;;;5089698;28;20471;-57
2024/03/31 09:54:42;;;;;;;50.30;12.10;;;;;;;;;;5088794;28;20040;-57
2024/03/31 09:57:08;;;;;;;65.15;11.93;;;;;;;;;;5085634;28;20428;-56
2024/03/31 09:59:39;;;;;;;53.00;12.60;;;;;;;;;;5092641;28;20391;-56
2024/03/31 10:02:07;;;;;;;48.97;11.43;;;;;;;;;;5090440;28;20432;-57
2024/03/31 10:04:36;;;;;;;49.92;11.18;;;;;;;;;;5087184;28;20486;-57
2024/03/31 10:07:03;;;;;;;50.40;12.02;;;;;;;;;;5086928;28;20028;-57
2024/03/31 10:09:29;;;;;;;41.83;11.95;;;;;;;;;;5090955;28;20024;-57
2024/03/31 10:11:56;;;;;;;46.15;10.77;;;;;;;;;;5087084;28;20025;-57
2024/03/31 10:14:23;;;;;;;46.67;11.88;;;;;;;;;;5088634;28;20040;-58
2024/03/31 10:16:49;;;;;;;44.83;11.32;;;;;;;;;;5092666;28;20488;-58
2024/03/31 10:19:16;;;;;;;52.35;11.88;;;;;;;;;;5087926;28;20084;-60
2024/03/31 10:21:42;;;;;;;47.40;10.48;;;;;;;;;;5087810;28;20515;-59
2024/03/31 10:24:09;;;;;;;39.90;10.30;;;;;;;;;;5086606;28;20104;-59
2024/03/31 10:26:36;;;;;;;50.88;11.18;;;;;;;;;;5091617;28;20106;-59
2024/03/31 10:29:02;;;;;;;51.35;11.25;;;;;;;;;;5092276;28;20024;-59
2024/03/31 10:31:28;;;;;;;41.00;11.45;;;;;;;;;;5088909;28;20028;-59
2024/03/31 10:33:54;;;;;;;41.10;10.90;;;;;;;;;;5079622;28;20036;-60
2024/03/31 10:36:21;;;;;;;54.47;11.38;;;;;;;;;;5089337;28;20127;-59
2024/03/31 10:38:47;;;;;;;42.20;9.45;;;;;;;;;;5089093;28;20034;-58
2024/03/31 10:41:13;;;;;;;44.10;10.55;;;;;;;;;;5092829;28;20107;-59
2024/03/31 10:43:39;;;;;;;45.47;11.25;;;;;;;;;;5088903;28;20043;-59
2024/03/31 10:46:07;;;;;;;32.13;9.38;;;;;;;;;;5089113;28;20111;-59
2024/03/31 10:48:33;;;;;;;30.60;9.02;;;;;;;;;;5079056;28;20035;-59
2024/03/31 10:51:08;;;;;;;39.40;9.05;;;;;;;;;;5096409;28;20099;-60
2024/03/31 10:53:34;;;;;;;35.42;8.52;;;;;;;;;;5092032;28;20027;-59
2024/03/31 10:56:03;;;;;;;39.38;9.88;;;;;;;;;;5086235;28;20473;-60
2024/03/31 10:58:31;;;;;;;45.28;9.82;;;;;;;;;;5086955;28;20115;-61
2024/03/31 11:00:57;;;;;;;41.80;9.55;;;;;;;;;;5091081;28;20077;-60
2024/03/31 11:03:26;;;;;;;33.50;9.63;;;;;;;;;;5082114;28;20036;-59
2024/03/31 11:05:52;;;;;;;33.10;8.63;;;;;;;;;;5084641;28;20028;-59
2024/03/31 11:08:18;;;;;;;32.58;8.75;;;;;;;;;;5090751;28;20035;-59
2024/03/31 11:10:45;;;;;;;33.63;8.45;;;;;;;;;;5091723;28;20019;-59
2024/03/31 11:13:11;;;;;;;31.58;7.97;;;;;;;;;;5090678;28;20503;-59
2024/03/31 11:15:37;;;;;;;29.45;8.68;;;;;;;;;;5089207;28;20111;-59
2024/03/31 11:18:04;;;;;;;36.95;8.55;;;;;;;;;;5092029;28;20452;-59
2024/03/31 11:20:30;;;;;;;40.30;9.10;;;;;;;;;;5085957;28;20067;-59
2024/03/31 11:22:57;;;;;;;35.97;8.35;;;;;;;;;;5089535;28;20048;-58
2024/03/31 11:25:23;;;;;;;36.90;8.57;;;;;;;;;;5085544;28;20034;-57
2024/03/31 11:27:49;;;;;;;31.50;8.15;;;;;;;;;;5077503;28;20039;-58
2024/03/31 11:30:16;;;;;;;31.23;8.52;;;;;;;;;;5085709;28;20444;-57
2024/03/31 11:32:42;;;;;;;28.85;8.50;;;;;;;;;;5086761;28;20103;-57
2024/03/31 11:35:08;;;;;;;27.20;7.93;;;;;;;;;;5091674;28;20028;-57
2024/03/31 11:37:34;;;;;;;22.55;6.57;;;;;;;;;;5091084;28;20510;-57
2024/03/31 11:40:01;;;;;;;28.48;8.07;;;;;;;;;;5091583;28;20032;-57
2024/03/31 11:42:27;;;;;;;33.65;8.38;;;;;;;;;;5088170;28;20047;-58
2024/03/31 11:44:56;;;;;;;36.35;9.05;;;;;;;;;;5088115;28;20408;-57
2024/03/31 11:47:22;;;;;;;32.90;7.55;;;;;;;;;;5091469;28;20049;-57
2024/03/31 11:49:49;;;;;;;30.80;7.78;;;;;;;;;;5091582;28;20031;-58
2024/03/31 11:52:15;;;;;;;34.08;7.50;;;;;;;;;;5098821;28;20107;-57
2024/03/31 11:54:41;;;;;;;28.38;7.13;;;;;;;;;;5077894;28;20028;-57
2024/03/31 11:57:08;;;;;;;30.63;6.47;;;;;;;;;;5083994;28;20075;-58
2024/03/31 11:59:34;;;;;;;31.50;7.28;;;;;;;;;;5090922;28;20024;-57
2024/03/31 12:02:06;;;;;;;25.73;7.63;;;;;;;;;;5088668;28;20043;-57
2024/03/31 12:04:32;;;;;;;25.67;6.73;;;;;;;;;;5080858;28;20031;-57
2024/03/31 12:06:58;;;;;;;23.70;6.97;;;;;;;;;;5088666;28;20475;-58
2024/03/31 12:09:24;;;;;;;31.98;7.43;;;;;;;;;;5089736;28;20054;-58
2024/03/31 12:11:51;;;;;;;35.42;7.50;;;;;;;;;;5088049;28;20070;-58
2024/03/31 12:14:17;;;;;;;28.25;7.75;;;;;;;;;;5092886;28;20028;-58
2024/03/31 12:16:44;;;;;;;33.75;7.45;;;;;;;;;;5095541;28;20025;-58
2024/03/31 12:19:11;;;;;;;35.00;7.05;;;;;;;;;;5095159;28;20082;-59
2024/03/31 12:21:37;;;;;;;24.55;7.05;;;;;;;;;;5095041;28;20154;-57
2024/03/31 12:24:03;;;;;;;27.58;6.15;;;;;;;;;;5094929;28;20040;-58
2024/03/31 12:26:33;;;;;;;24.15;6.57;;;;;;;;;;5093954;28;20471;-55
2024/03/31 12:28:59;;;;;;;27.63;6.10;;;;;;;;;;5095167;28;20021;-57
2024/03/31 12:31:26;;;;;;;31.60;6.20;;;;;;;;;;5094991;28;20460;-58
2024/03/31 12:33:52;;;;;;;22.73;6.68;;;;;;;;;;5094219;28;20038;-58
2024/03/31 12:36:19;;;;;;;27.67;5.60;;;;;;;;;;5095416;28;20035;-57
2024/03/31 12:38:46;;;;;;;32.33;6.30;;;;;;;;;;5095150;28;20024;-55
2024/03/31 12:41:12;;;;;;;26.95;5.93;;;;;;;;;;5092899;28;20074;-57
2024/03/31 12:43:39;;;;;;;36.90;6.53;;;;;;;;;;5093518;28;20042;-58
2024/03/31 12:46:09;;;;;;;24.13;6.53;;;;;;;;;;5095349;28;20043;-57
2024/03/31 12:48:37;;;;;;;24.67;5.78;;;;;;;;;;5094660;28;20025;-58
2024/03/31 12:51:03;;;;;;;23.83;6.68;;;;;;;;;;5103835;28;20030;-58
2024/03/31 12:53:29;;;;;;;28.05;6.82;;;;;;;;;;5093540;28;20024;-58
2024/03/31 12:55:55;;;;;;;37.58;7.50;;;;;;;;;;5094514;28;20156;-59
2024/03/31 12:58:21;;;;;;;30.40;6.55;;;;;;;;;;5093663;28;20490;-57
2024/03/31 13:00:48;;;;;;;30.83;6.47;;;;;;;;;;5093942;28;20053;-58
2024/03/31 13:03:17;;;;;;;38.22;7.25;;;;;;;;;;5093860;28;20455;-57
2024/03/31 13:05:43;;;;;;;33.00;6.93;;;;;;;;;;5094116;28;20036;-57
2024/03/31 13:08:10;;;;;;;28.90;7.45;;;;;;;;;;5093990;28;20020;-58
2024/03/31 13:10:36;;;;;;;31.90;7.53;;;;;;;;;;5094367;28;20103;-57
2024/03/31 13:13:05;;;;;;;35.60;8.10;;;;;;;;;;5088206;28;20035;-57
2024/03/31 13:15:31;;;;;;;42.65;7.35;;;;;;;;;;5094078;28;20103;-58
2024/03/31 13:17:57;;;;;;;37.33;8.32;;;;;;;;;;5089073;28;20033;-57
2024/03/31 13:20:26;;;;;;;27.95;7.60;;;;;;;;;;5092689;28;20142;-57
2024/03/31 13:22:53;;;;;;;36.38;8.00;;;;;;;;;;5091109;28;20066;-57
2024/03/31 13:25:19;;;;;;;31.67;7.32;;;;;;;;;;5085807;28;20088;-57
2024/03/31 13:27:45;;;;;;;43.50;7.63;;;;;;;;;;5093490;28;20032;-57
2024/03/31 13:30:11;;;;;;;41.67;7.57;;;;;;;;;;5092248;28;20479;-57
2024/03/31 13:32:37;;;;;;;36.15;7.18;;;;;;;;;;5093585;28;21467;-57
2024/03/31 13:35:03;;;;;;;31.27;7.75;;;;;;;;;;5091133;28;20064;-58
2024/03/31 13:37:31;;;;;;;31.35;7.22;;;;;;;;;;5092289;28;20400;-58
2024/03/31 13:39:56;;;;;;;40.92;6.93;;;;;;;;;;5089832;28;20399;-57
2024/03/31 13:42:22;;;;;;;36.80;7.70;;;;;;;;;;5093387;28;20437;-57
2024/03/31 13:44:48;;;;;;;29.67;7.28;;;;;;;;;;5091172;28;20032;-56
2024/03/31 13:47:14;;;;;;;38.58;7.72;;;;;;;;;;5088047;28;20144;-57
2024/03/31 13:49:40;;;;;;;48.22;8.07;;;;;;;;;;5092604;28;20095;-59
2024/03/31 13:52:06;;;;;;;28.00;7.18;;;;;;;;;;5095107;28;20020;-60
2024/03/31 13:54:35;;;;;;;30.95;7.35;;;;;;;;;;5090786;28;20077;-59
2024/03/31 13:57:01;;;;;;;40.33;8.43;;;;;;;;;;5088465;28;20020;-60
2024/03/31 13:59:27;;;;;;;30.02;7.35;;;;;;;;;;5082848;28;20020;-59
2024/03/31 14:01:53;;;;;;;40.47;7.40;;;;;;;;;;5086956;28;20440;-59
2024/03/31 14:04:19;;;;;;;45.60;7.28;;;;;;;;;;5089319;28;20058;-60
2024/03/31 14:06:45;;;;;;;38.30;7.47;;;;;;;;;;5088236;28;20028;-59
2024/03/31 14:09:11;;;;;;;37.65;6.95;;;;;;;;;;5091040;28;20036;-59
2024/03/31 14:11:37;;;;;;;28.58;6.55;;;;;;;;;;5088846;28;20103;-61
2024/03/31 14:14:03;;;;;;;40.72;7.40;;;;;;;;;;5087358;28;20020;-59
2024/03/31 14:16:29;;;;;;;38.47;7.65;;;;;;;;;;5092967;28;20037;-59